Time;durP1;ratioP1;P1;durP2;ratioP2;P2;SDS_P1;SDS_P2;PMS_P1;PMS_P2;Temp;Humidity;BMP_temperature;BMP_pressure;BME280_temperature;BME280_humidity;BME280_pressure;Samples;Min_cycle;Max_cycle;Signal;HPM_P1;HPM_P2
2023/02/12 00:01:36;;;;;;;80.97;9.80;;;;;;;6.54;98.01;102694.94;5117845;28;20020;-67
2023/02/12 00:04:02;;;;;;;96.20;10.10;;;;;;;6.61;98.26;102705.97;5118051;28;20031;-68
2023/02/12 00:06:28;;;;;;;90.55;10.20;;;;;;;6.62;98.14;102704.13;5118237;28;20384;-67
2023/02/12 00:08:55;;;;;;;93.47;10.00;;;;;;;6.64;98.14;102699.53;5117377;27;20024;-68
2023/02/12 00:11:24;;;;;;;95.38;10.20;;;;;;;6.52;98.39;102675.50;5117670;28;20180;-67
2023/02/12 00:13:50;;;;;;;100.78;11.02;;;;;;;6.67;98.10;102677.88;5117090;28;20031;-68
2023/02/12 00:16:18;;;;;;;99.88;10.63;;;;;;;6.79;98.52;102690.25;5115508;28;20413;-68
2023/02/12 00:18:44;;;;;;;104.53;11.00;;;;;;;6.84;98.64;102693.38;5117342;28;20120;-68
2023/02/12 00:21:12;;;;;;;86.40;10.10;;;;;;;6.79;98.21;102690.25;5115416;28;20023;-68
2023/02/12 00:23:40;;;;;;;118.53;10.88;;;;;;;6.86;98.82;102698.59;5115664;28;20038;-67
2023/02/12 00:26:11;;;;;;;100.88;10.38;;;;;;;6.90;98.76;102705.38;5116006;28;20031;-68
2023/02/12 00:28:37;;;;;;;104.32;12.52;;;;;;;6.93;98.98;102703.31;5115995;28;20169;-67
2023/02/12 00:31:15;;;;;;;104.07;11.13;;;;;;;6.95;99.44;102695.97;5115000;28;20454;-68
2023/02/12 00:33:41;;;;;;;100.20;10.60;;;;;;;6.90;98.72;102679.47;5115068;28;20028;-68
2023/02/12 00:36:08;;;;;;;96.97;11.07;;;;;;;7.01;99.06;102694.63;5117741;28;20500;-68
2023/02/12 00:38:34;;;;;;;99.25;11.18;;;;;;;7.06;99.45;102689.75;5116512;28;20016;-68
2023/02/12 00:40:59;;;;;;;107.68;11.38;;;;;;;7.14;99.75;102700.63;5115744;28;20047;-67
2023/02/12 00:43:25;;;;;;;105.47;11.43;;;;;;;7.21;99.49;102696.44;5115562;28;20378;-67
2023/02/12 00:45:50;;;;;;;117.43;11.15;;;;;;;7.19;99.51;102684.19;5115784;28;20528;-67
2023/02/12 00:48:16;;;;;;;104.10;11.80;;;;;;;7.26;99.75;102690.72;5116723;28;20035;-67
2023/02/12 00:50:44;;;;;;;112.97;12.07;;;;;;;7.24;99.51;102690.00;5098403;28;20098;-67
2023/02/12 00:53:10;;;;;;;118.20;11.15;;;;;;;7.29;100.00;102709.22;5116153;28;20515;-67
2023/02/12 00:55:35;;;;;;;113.07;11.63;;;;;;;7.32;100.00;102698.25;5098666;28;20128;-67
2023/02/12 00:58:00;;;;;;;136.93;13.93;;;;;;;7.24;100.00;102674.78;5098438;28;20032;-67
2023/02/12 01:00:26;;;;;;;110.47;11.48;;;;;;;7.37;100.00;102689.78;5116781;28;20096;-67
2023/02/12 01:02:51;;;;;;;113.43;11.73;;;;;;;7.32;100.00;102681.28;5115253;28;20087;-67
2023/02/12 01:05:18;;;;;;;104.35;10.25;;;;;;;7.38;100.00;102681.63;5125122;28;20496;-68
2023/02/12 01:07:48;;;;;;;116.30;12.30;;;;;;;7.43;100.00;102686.59;5123428;28;20114;-67
2023/02/12 01:10:14;;;;;;;140.70;11.90;;;;;;;7.39;100.00;102688.69;5118514;28;20032;-67
2023/02/12 01:12:39;;;;;;;113.22;12.20;;;;;;;7.38;100.00;102692.31;5117457;28;20430;-68
2023/02/12 01:15:05;;;;;;;120.20;11.88;;;;;;;7.21;100.00;102685.75;5102504;28;20816;-67
2023/02/12 01:17:31;;;;;;;121.18;11.82;;;;;;;7.33;100.00;102712.47;5082946;28;20073;-67
2023/02/12 01:19:57;;;;;;;124.22;11.88;;;;;;;7.19;100.00;102692.22;5119592;28;20027;-67
2023/02/12 01:22:23;;;;;;;122.50;11.48;;;;;;;7.27;100.00;102703.97;5118387;28;20085;-67
2023/02/12 01:24:48;;;;;;;130.65;12.50;;;;;;;7.23;100.00;102670.41;5097665;28;20027;-68
2023/02/12 01:27:14;;;;;;;121.70;12.73;;;;;;;7.40;100.00;102693.06;5098466;28;20024;-67
2023/02/12 01:29:43;;;;;;;113.15;11.95;;;;;;;7.24;100.00;102649.81;5115179;28;20082;-68
2023/02/12 01:32:09;;;;;;;114.47;12.35;;;;;;;7.41;100.00;102670.63;5116371;28;20134;-67
2023/02/12 01:34:35;;;;;;;122.57;12.13;;;;;;;7.52;100.00;102681.28;5114480;28;20026;-67
2023/02/12 01:37:00;;;;;;;113.53;12.10;;;;;;;7.56;100.00;102684.56;5116367;28;20433;-67
2023/02/12 01:39:25;;;;;;;118.20;12.98;;;;;;;7.58;100.00;102689.75;5114169;28;20028;-67
2023/02/12 01:41:51;;;;;;;112.53;11.85;;;;;;;7.58;100.00;102687.09;5115583;28;20051;-67
2023/02/12 01:44:22;;;;;;;114.40;12.77;;;;;;;7.56;100.00;102691.75;5117816;28;20031;-67
2023/02/12 01:46:54;;;;;;;107.82;10.88;;;;;;;7.54;100.00;102690.03;5117694;28;20034;-67
2023/02/12 01:49:46;;;;;;;110.30;11.35;;;;;;;7.59;100.00;102695.00;5118624;28;20052;-67
2023/02/12 01:52:28;;;;;;;97.32;10.70;;;;;;;7.63;100.00;102690.22;5119774;27;20027;-67
2023/02/12 01:54:59;;;;;;;117.45;12.00;;;;;;;7.66;100.00;102692.63;5119501;28;20156;-67
2023/02/12 01:57:27;;;;;;;118.45;11.23;;;;;;;7.70;100.00;102694.06;5117945;28;20421;-67
2023/02/12 01:59:55;;;;;;;128.13;11.98;;;;;;;7.62;100.00;102688.53;5118115;28;20066;-68
2023/02/12 02:02:21;;;;;;;119.38;12.45;;;;;;;7.54;100.00;102686.50;5119928;28;20148;-68
2023/02/12 02:04:54;;;;;;;131.18;11.55;;;;;;;7.59;100.00;102678.94;5119925;28;20489;-67
2023/02/12 02:07:20;;;;;;;117.55;12.05;;;;;;;7.46;100.00;102659.53;5117908;28;20020;-66
2023/02/12 02:09:46;;;;;;;125.47;11.80;;;;;;;7.56;100.00;102683.72;5116989;28;20029;-67
2023/02/12 02:14:59;;;;;;;107.38;12.30;;;;;;;7.43;100.00;102678.56;5117839;28;20097;-67
2023/02/12 02:17:38;;;;;;;129.13;12.50;;;;;;;7.62;100.00;102701.94;5118025;28;20077;-67
2023/02/12 02:20:21;;;;;;;139.73;12.43;;;;;;;7.63;100.00;102695.59;5118436;28;20096;-67
2023/02/12 02:23:05;;;;;;;144.48;12.23;;;;;;;7.59;100.00;102691.47;5118563;28;20038;-67
2023/02/12 02:26:09;;;;;;;104.90;11.95;;;;;;;7.58;100.00;102693.28;5119477;28;20181;-67
2023/02/12 02:28:51;;;;;;;134.52;12.07;;;;;;;7.59;100.00;102689.66;5122990;28;20023;-68
2023/02/12 02:31:20;;;;;;;142.05;11.68;;;;;;;7.57;100.00;102688.06;5121480;28;20338;-67
2023/02/12 02:34:36;;;;;;;138.40;12.63;;;;;;;7.56;100.00;102689.91;5118771;28;20043;-67
2023/02/12 02:37:11;;;;;;;130.18;11.18;;;;;;;7.52;100.00;102696.53;5079599;28;20465;-67
2023/02/12 02:39:39;;;;;;;131.68;10.70;;;;;;;7.54;100.00;102694.53;5119931;28;20131;-68
2023/02/12 02:42:28;;;;;;;109.97;11.00;;;;;;;7.64;100.00;102708.84;5119076;28;20386;-67
2023/02/12 02:45:01;;;;;;;126.05;11.13;;;;;;;7.59;100.00;102699.53;5120509;28;20085;-68
2023/02/12 02:47:45;;;;;;;125.57;11.20;;;;;;;7.64;100.00;102700.78;5118942;28;20024;-67
2023/02/12 02:50:16;;;;;;;106.38;10.18;;;;;;;7.73;100.00;102697.31;5109382;28;20043;-68
2023/02/12 02:52:53;;;;;;;131.20;10.68;;;;;;;7.80;100.00;102697.63;5098315;28;20386;-68
2023/02/12 02:55:23;;;;;;;126.00;11.40;;;;;;;7.60;100.00;102663.69;5097168;28;20038;-68
2023/02/12 02:58:04;;;;;;;119.57;11.18;;;;;;;7.85;100.00;102699.94;5097508;28;20439;-68
2023/02/12 03:00:40;;;;;;;112.28;9.85;;;;;;;7.88;100.00;102696.94;5099986;28;20077;-68
2023/02/12 03:03:18;;;;;;;126.22;11.20;;;;;;;7.80;100.00;102672.66;5099964;28;20131;-67
2023/02/12 03:05:51;;;;;;;114.13;10.55;;;;;;;7.91;100.00;102678.78;5100359;28;20028;-67
2023/02/12 03:08:28;;;;;;;122.47;10.65;;;;;;;7.97;100.00;102699.66;5099129;28;20028;-67
2023/02/12 03:10:59;;;;;;;117.95;10.75;;;;;;;7.97;100.00;102694.31;5099748;28;20024;-67
2023/02/12 03:13:31;;;;;;;114.13;11.38;;;;;;;7.81;100.00;102669.84;5099284;28;20024;-68
2023/02/12 03:16:03;;;;;;;125.07;10.75;;;;;;;8.06;100.00;102702.53;5098949;28;20044;-67
2023/02/12 03:18:35;;;;;;;108.40;9.18;;;;;;;8.12;100.00;102697.47;5100036;28;20020;-67
2023/02/12 03:21:06;;;;;;;106.72;9.48;;;;;;;8.09;100.00;102700.44;5098388;28;20111;-67
2023/02/12 03:23:39;;;;;;;116.78;10.27;;;;;;;8.15;100.00;102704.41;5098101;28;20038;-67
2023/02/12 03:26:11;;;;;;;113.40;10.70;;;;;;;8.10;100.00;102690.53;5099302;28;20027;-66
2023/02/12 03:28:39;;;;;;;92.30;9.13;;;;;;;8.17;100.00;102689.84;5096681;28;20020;-68
2023/02/12 03:31:11;;;;;;;97.65;9.43;;;;;;;8.27;100.00;102711.34;5097720;28;20028;-67
2023/02/12 03:34:08;;;;;;;102.75;9.98;;;;;;;8.22;100.00;102716.28;5097915;28;20027;-68
2023/02/12 03:36:36;;;;;;;78.93;8.55;;;;;;;8.24;100.00;102716.97;5099562;28;20107;-67
2023/02/12 03:39:31;;;;;;;99.45;10.23;;;;;;;8.25;100.00;102716.00;5098291;28;20039;-67
2023/02/12 03:42:03;;;;;;;;;;;;;;;8.31;100.00;102714.59;5087974;28;20032;-68
2023/02/12 03:44:31;;;;;;;76.05;8.55;;;;;;;8.30;100.00;102713.75;5098048;28;19908;-68
2023/02/12 03:47:05;;;;;;;96.50;9.77;;;;;;;8.33;100.00;102718.84;5098694;28;20041;-68
2023/02/12 03:49:38;;;;;;;88.13;10.25;;;;;;;8.28;100.00;102699.66;5100117;28;20104;-68
2023/02/12 03:52:04;;;;;;;85.35;9.10;;;;;;;8.40;100.00;102732.56;5103021;28;20034;-68
2023/02/12 03:54:30;;;;;;;96.20;9.70;;;;;;;8.38;100.00;102724.69;5101518;28;20028;-68
2023/02/12 03:57:06;;;;;;;92.65;9.65;;;;;;;8.40;100.00;102732.56;5099477;28;20032;-68
2023/02/12 03:59:35;;;;;;;88.93;10.05;;;;;;;8.37;100.00;102728.28;5102015;28;20085;-67
2023/02/12 04:02:01;;;;;;;75.78;8.30;;;;;;;8.32;100.00;102701.06;5099359;28;20553;-68
2023/02/12 04:04:27;;;;;;;80.47;8.75;;;;;;;8.45;100.00;102731.19;5097775;28;20032;-67
2023/02/12 04:06:53;;;;;;;66.38;7.47;;;;;;;8.40;100.00;102720.00;5079712;28;20068;-67
2023/02/12 04:09:22;;;;;;;65.32;8.05;;;;;;;8.54;100.00;102728.66;5094882;28;20032;-68
2023/02/12 04:12:24;;;;;;;63.80;7.22;;;;;;;8.62;100.00;102723.44;5098488;28;20028;-67
2023/02/12 04:14:59;;;;;;;61.83;7.70;;;;;;;8.49;100.00;102726.38;5097310;28;20020;-67
2023/02/12 04:17:53;;;;;;;49.75;6.13;;;;;;;8.38;100.00;102719.31;5098962;28;20117;-67
2023/02/12 04:20:55;;;;;;;50.17;6.43;;;;;;;8.29;100.00;102695.97;5106468;28;20096;-67
2023/02/12 04:23:37;;;;;;;56.58;6.50;;;;;;;8.45;100.00;102712.41;5098367;28;20024;-67
2023/02/12 04:26:14;;;;;;;53.85;6.63;;;;;;;8.49;100.00;102722.88;5098591;28;20085;-68
2023/02/12 04:29:01;;;;;;;48.35;6.40;;;;;;;8.40;100.00;102717.31;5098247;28;20034;-67
2023/02/12 04:31:50;;;;;;;59.15;6.25;;;;;;;8.44;100.00;102720.56;5099075;28;20047;-67
2023/02/12 04:34:18;;;;;;;57.08;6.60;;;;;;;8.45;100.00;102723.13;5099450;28;20020;-67
2023/02/12 04:36:53;;;;;;;43.10;5.60;;;;;;;8.51;100.00;102720.88;5098887;28;20033;-68
2023/02/12 04:39:24;;;;;;;50.35;6.22;;;;;;;8.51;100.00;102719.06;5097319;28;20032;-68
2023/02/12 04:41:49;;;;;;;51.97;6.13;;;;;;;8.52;100.00;102722.59;5097449;28;20181;-67
2023/02/12 04:44:22;;;;;;;39.25;5.45;;;;;;;8.47;100.00;102726.50;5099002;28;20500;-67
2023/02/12 04:46:47;;;;;;;41.25;6.18;;;;;;;8.45;100.00;102731.19;5098032;28;20027;-68
2023/02/12 04:49:18;;;;;;;42.78;5.20;;;;;;;8.45;100.00;102731.19;5097908;28;20036;-68
2023/02/12 04:51:45;;;;;;;46.03;5.32;;;;;;;8.44;100.00;102729.50;5097642;28;20028;-67
2023/02/12 04:54:11;;;;;;;35.55;4.85;;;;;;;8.51;100.00;102731.59;5096341;28;20032;-67
2023/02/12 04:56:37;;;;;;;38.72;4.63;;;;;;;8.32;100.00;102713.63;5096652;28;20028;-67
2023/02/12 04:59:03;;;;;;;37.08;4.63;;;;;;;8.43;100.00;102733.16;5097962;28;20104;-68
2023/02/12 05:01:28;;;;;;;37.70;4.78;;;;;;;8.56;100.00;102729.38;5096902;28;20043;-68
2023/02/12 05:03:53;;;;;;;46.08;5.65;;;;;;;8.44;100.00;102718.78;5097403;28;20024;-68
2023/02/12 05:06:19;;;;;;;33.80;4.20;;;;;;;8.58;100.00;102732.78;5096229;28;20024;-67
2023/02/12 05:08:44;;;;;;;36.22;4.28;;;;;;;8.54;100.00;102744.75;5095810;28;20181;-67
2023/02/12 05:11:10;;;;;;;31.95;4.10;;;;;;;8.55;100.00;102733.06;5095655;28;20042;-68
2023/02/12 05:13:36;;;;;;;42.42;4.80;;;;;;;8.58;100.00;102732.78;5100950;28;20028;-67
2023/02/12 05:16:04;;;;;;;31.20;4.10;;;;;;;8.58;100.00;102727.41;5087732;28;20056;-67
2023/02/12 05:18:30;;;;;;;28.35;3.90;;;;;;;8.50;100.00;102729.91;5100969;28;20084;-67
2023/02/12 05:20:58;;;;;;;42.65;4.35;;;;;;;8.52;100.00;102722.59;5101885;28;20387;-68
2023/02/12 05:23:32;;;;;;;35.50;4.13;;;;;;;8.57;100.00;102729.22;5106728;28;20020;-68
2023/02/12 05:25:58;;;;;;;42.13;4.28;;;;;;;8.52;100.00;102726.13;5100885;28;20020;-67
2023/02/12 05:28:24;;;;;;;35.90;4.20;;;;;;;8.42;100.00;102707.31;5100482;28;20040;-67
2023/02/12 05:30:49;;;;;;;28.73;3.63;;;;;;;8.34;100.00;102685.66;5100256;28;20028;-67
2023/02/12 05:33:15;;;;;;;40.63;4.00;;;;;;;8.52;100.00;102703.81;5100019;28;20024;-67
2023/02/12 05:35:40;;;;;;;35.50;3.70;;;;;;;8.48;100.00;102708.59;5098918;28;20233;-68
2023/02/12 05:38:05;;;;;;;34.95;4.22;;;;;;;8.49;100.00;102707.63;5100454;28;20033;-68
2023/02/12 05:40:31;;;;;;;41.90;4.20;;;;;;;8.55;100.00;102712.44;5099832;28;20086;-67
2023/02/12 05:42:56;;;;;;;27.90;4.15;;;;;;;8.55;100.00;102711.59;5097867;28;20034;-68
2023/02/12 05:45:26;;;;;;;33.85;4.55;;;;;;;8.47;100.00;102704.22;5100848;28;20122;-67
2023/02/12 05:47:55;;;;;;;43.67;4.10;;;;;;;8.46;100.00;102705.19;5098905;28;20028;-67
2023/02/12 05:50:20;;;;;;;51.95;4.88;;;;;;;8.50;100.00;102703.09;5099662;28;20063;-68
2023/02/12 05:52:46;;;;;;;43.38;4.22;;;;;;;8.47;100.00;102694.31;5100176;28;20244;-67
2023/02/12 05:55:11;;;;;;;46.15;4.85;;;;;;;8.49;100.00;102693.34;5097712;28;20038;-67
2023/02/12 05:57:36;;;;;;;46.13;4.85;;;;;;;8.51;100.00;102694.91;5099060;28;20084;-67
2023/02/12 06:00:04;;;;;;;48.65;4.43;;;;;;;8.38;100.00;102662.97;5097710;28;20056;-68
2023/02/12 06:02:31;;;;;;;41.13;4.38;;;;;;;8.49;100.00;102701.41;5098027;28;20493;-67
2023/02/12 06:04:57;;;;;;;50.78;4.60;;;;;;;8.52;100.00;102703.81;5099755;28;20032;-68
2023/02/12 06:07:22;;;;;;;57.20;5.53;;;;;;;8.55;100.00;102706.22;5098353;28;20092;-68
2023/02/12 06:09:48;;;;;;;48.78;4.40;;;;;;;8.53;100.00;102709.03;5098087;28;20044;-67
2023/02/12 06:12:14;;;;;;;55.45;4.65;;;;;;;8.53;100.00;102706.34;5099945;28;20035;-67
2023/02/12 06:14:40;;;;;;;45.50;4.18;;;;;;;8.52;100.00;102717.22;5097715;28;20040;-67
2023/02/12 06:17:06;;;;;;;48.03;5.10;;;;;;;8.54;100.00;102713.41;5099430;28;20131;-67
2023/02/12 06:19:31;;;;;;;56.17;5.90;;;;;;;8.54;100.00;102717.91;5098358;28;20046;-68
2023/02/12 06:21:56;;;;;;;44.58;5.00;;;;;;;8.53;100.00;102717.06;5099557;28;20035;-68
2023/02/12 06:24:22;;;;;;;54.97;4.60;;;;;;;8.54;100.00;102720.59;5101030;28;20036;-67
2023/02/12 06:26:50;;;;;;;50.30;4.93;;;;;;;8.60;100.00;102722.72;5103747;28;20024;-68
2023/02/12 06:29:17;;;;;;;56.70;5.05;;;;;;;8.39;100.00;102715.63;5111273;28;20043;-67
2023/02/12 06:31:43;;;;;;;48.70;4.63;;;;;;;8.54;100.00;102745.59;5111732;28;20155;-67
2023/02/12 06:34:11;;;;;;;55.60;6.00;;;;;;;8.61;100.00;102745.88;5111219;28;20024;-68
2023/02/12 06:36:39;;;;;;;58.63;5.65;;;;;;;8.56;100.00;102746.31;5108807;28;20055;-67
2023/02/12 06:39:05;;;;;;;51.25;6.43;;;;;;;8.38;100.00;102724.69;5107549;28;20024;-68
2023/02/12 06:41:31;;;;;;;58.08;5.35;;;;;;;8.55;100.00;102746.47;5103218;28;20039;-68
2023/02/12 06:43:56;;;;;;;55.70;5.80;;;;;;;8.50;100.00;102736.13;5099720;28;20061;-68
2023/02/12 06:46:22;;;;;;;53.88;5.20;;;;;;;8.54;100.00;102748.28;5100511;28;20031;-67
2023/02/12 06:48:52;;;;;;;62.15;6.88;;;;;;;8.59;100.00;102755.94;5084764;28;20035;-69
2023/02/12 06:51:20;;;;;;;66.13;6.30;;;;;;;8.60;100.00;102744.19;5101131;28;20030;-68
2023/02/12 06:53:46;;;;;;;65.13;6.72;;;;;;;8.56;100.00;102742.78;5098325;28;20027;-69
2023/02/12 06:56:12;;;;;;;58.17;5.63;;;;;;;8.55;100.00;102749.16;5097459;28;20024;-68
2023/02/12 06:58:40;;;;;;;61.95;6.70;;;;;;;8.49;100.00;102745.19;5099192;28;20036;-67
2023/02/12 07:01:12;;;;;;;60.13;6.25;;;;;;;8.60;100.00;102750.41;5099381;28;20031;-70
2023/02/12 07:03:39;;;;;;;57.97;5.97;;;;;;;8.62;100.00;102740.41;5098652;28;20110;-69
2023/02/12 07:06:05;;;;;;;68.13;6.03;;;;;;;8.61;100.00;102746.75;5098422;28;20589;-68
2023/02/12 07:08:30;;;;;;;57.17;6.20;;;;;;;8.66;100.00;102749.00;5098972;28;20024;-70
2023/02/12 07:10:56;;;;;;;57.65;5.80;;;;;;;8.69;100.00;102751.44;5097848;28;20119;-69
2023/02/12 07:13:21;;;;;;;75.80;7.25;;;;;;;8.72;100.00;102750.31;5099384;28;20047;-70
2023/02/12 07:15:46;;;;;;;67.22;6.40;;;;;;;8.74;100.00;102751.88;5080606;28;20071;-67
2023/02/12 07:18:12;;;;;;;66.18;6.13;;;;;;;8.74;100.00;102754.56;5098380;28;20039;-67
2023/02/12 07:20:38;;;;;;;62.97;6.13;;;;;;;8.80;100.00;102745.91;5097638;28;20028;-67
2023/02/12 07:23:04;;;;;;;61.65;6.10;;;;;;;8.77;100.00;102754.25;5097173;28;20040;-68
2023/02/12 07:25:29;;;;;;;65.43;5.97;;;;;;;8.81;100.00;102747.63;5080126;28;20024;-67
2023/02/12 07:27:54;;;;;;;65.22;6.10;;;;;;;8.83;100.00;102747.47;5096697;28;20031;-67
2023/02/12 07:30:20;;;;;;;61.47;5.97;;;;;;;8.79;100.00;102752.28;5097605;28;20031;-67
2023/02/12 07:32:45;;;;;;;70.28;6.82;;;;;;;8.68;100.00;102731.78;5095889;28;20031;-68
2023/02/12 07:35:11;;;;;;;77.53;6.00;;;;;;;8.88;100.00;102753.28;5113915;28;20165;-68
2023/02/12 07:37:36;;;;;;;54.58;6.03;;;;;;;8.89;100.00;102747.75;5096323;28;20091;-68
2023/02/12 07:40:02;;;;;;;69.28;6.90;;;;;;;8.83;100.00;102750.16;5096828;28;20032;-68
2023/02/12 07:42:29;;;;;;;60.85;7.80;;;;;;;8.82;100.00;102743.94;5079869;28;20068;-68
2023/02/12 07:44:54;;;;;;;61.22;7.47;;;;;;;8.87;100.00;102752.44;5080044;28;20016;-68
2023/02/12 07:47:19;;;;;;;64.90;7.13;;;;;;;8.91;100.00;102742.28;5080204;28;20103;-68
2023/02/12 07:49:45;;;;;;;62.15;8.85;;;;;;;8.97;100.00;102754.25;5113284;28;20028;-69
2023/02/12 07:52:11;;;;;;;65.65;7.35;;;;;;;8.67;100.00;102713.13;5099487;28;20448;-68
2023/02/12 07:54:36;;;;;;;53.53;6.50;;;;;;;8.94;100.00;102755.41;5098331;28;20031;-68
2023/02/12 07:57:02;;;;;;;61.20;6.32;;;;;;;9.01;100.00;102764.59;5098399;28;20028;-68
2023/02/12 07:59:27;;;;;;;56.92;7.20;;;;;;;9.05;100.00;102757.97;5100537;28;20102;-68
2023/02/12 08:01:53;;;;;;;56.33;7.20;;;;;;;9.11;100.00;102753.88;5104578;28;20016;-68
2023/02/12 08:04:22;;;;;;;64.15;6.35;;;;;;;9.09;100.00;102742.41;5101574;28;20024;-68
2023/02/12 08:06:51;;;;;;;53.08;6.10;;;;;;;9.13;100.00;102746.50;5095088;28;20027;-68
2023/02/12 08:09:22;;;;;;;50.08;6.25;;;;;;;9.20;100.00;102753.00;5096059;28;20187;-67
2023/02/12 08:11:47;;;;;;;57.55;5.68;;;;;;;9.13;100.00;102741.13;5099955;28;20114;-68
2023/02/12 08:14:15;;;;;;;53.80;5.97;;;;;;;9.12;100.00;102737.59;5100719;28;20020;-68
2023/02/12 08:16:43;;;;;;;60.63;7.10;;;;;;;9.34;100.00;102747.19;5098443;28;20048;-67
2023/02/12 08:19:09;;;;;;;66.88;7.70;;;;;;;9.44;100.00;102752.56;5098625;28;20027;-68
2023/02/12 08:21:34;;;;;;;59.50;6.00;;;;;;;9.31;100.00;102727.84;5101118;28;20035;-67
2023/02/12 08:24:00;;;;;;;46.17;6.68;;;;;;;9.41;100.00;102740.25;5099556;28;20721;-67
2023/02/12 08:26:29;;;;;;;53.30;6.85;;;;;;;9.36;100.00;102715.66;5101163;28;20032;-68
2023/02/12 08:28:58;;;;;;;49.05;6.10;;;;;;;9.50;100.00;102743.06;5100365;28;20687;-67
2023/02/12 08:31:29;;;;;;;56.75;5.15;;;;;;;9.56;100.00;102737.09;5102274;28;20107;-68
2023/02/12 08:33:55;;;;;;;60.70;7.15;;;;;;;9.62;100.00;102747.28;5100846;28;20470;-68
2023/02/12 08:36:27;;;;;;;52.10;6.30;;;;;;;9.74;100.00;102748.81;5099810;28;20501;-68
2023/02/12 08:38:53;;;;;;;67.32;6.57;;;;;;;9.69;100.00;102750.25;5100103;28;20036;-68
2023/02/12 08:41:23;;;;;;;48.35;5.05;;;;;;;9.70;100.00;102736.66;5100417;28;20042;-68
2023/02/12 08:43:51;;;;;;;51.03;5.75;;;;;;;9.82;100.00;102748.91;5100823;28;20526;-68
2023/02/12 08:46:19;;;;;;;50.28;6.15;;;;;;;9.85;100.00;102745.94;5099930;28;20024;-68
2023/02/12 08:48:45;;;;;;;55.42;6.50;;;;;;;9.84;100.00;102740.72;5097040;28;20119;-68
2023/02/12 08:51:19;;;;;;;52.95;5.13;;;;;;;9.78;100.00;102736.78;5100615;28;20032;-68
2023/02/12 08:53:47;;;;;;;56.92;5.50;;;;;;;9.86;100.00;102747.63;5099161;28;20092;-68
2023/02/12 08:56:15;;;;;;;54.17;6.50;;;;;;;9.83;100.00;102750.63;5100392;28;20038;-68
2023/02/12 08:58:41;;;;;;;56.25;5.68;;;;;;;10.00;100.00;102750.81;5099093;28;20066;-68
2023/02/12 09:01:15;;;;;;;36.17;4.82;;;;;;;10.01;100.00;102757.94;5101161;28;20062;-68
2023/02/12 09:03:42;;;;;;;49.70;4.53;;;;;;;9.98;100.00;102767.13;5099346;28;20104;-68
2023/02/12 09:06:08;;;;;;;43.17;4.22;;;;;;;10.14;100.00;102773.72;5102480;28;20024;-68
2023/02/12 09:08:35;;;;;;;35.72;4.55;;;;;;;10.12;100.00;102771.19;5099623;28;20047;-68
2023/02/12 09:11:30;;;;;;;39.70;4.63;;;;;;;10.15;100.00;102781.66;5100584;28;20035;-68
2023/02/12 09:14:01;;;;;;;;;;;;;;;10.23;100.00;102783.59;5097646;28;20043;-68
2023/02/12 09:16:28;;;;;;;38.42;4.10;;;;;;;10.21;100.00;102772.97;5101156;28;19955;-68
2023/02/12 09:18:54;;;;;;;47.75;4.53;;;;;;;10.13;100.00;102762.09;5103552;28;20028;-68
2023/02/12 09:21:20;;;;;;;35.58;4.32;;;;;;;10.27;100.00;102775.13;5103445;28;20007;-68
2023/02/12 09:23:46;;;;;;;43.92;4.40;;;;;;;10.22;100.00;102771.97;5108000;28;20047;-68
2023/02/12 09:26:15;;;;;;;43.03;4.05;;;;;;;10.31;100.00;102781.03;5108916;28;20031;-68
2023/02/12 09:28:41;;;;;;;41.40;4.45;;;;;;;10.33;100.00;102779.03;5104177;28;20066;-68
2023/02/12 09:31:15;;;;;;;45.08;4.35;;;;;;;10.32;100.00;102780.88;5101523;28;20020;-68
2023/02/12 09:33:41;;;;;;;36.35;4.35;;;;;;;10.35;100.00;102780.59;5104196;28;20035;-68
2023/02/12 09:36:12;;;;;;;35.67;4.40;;;;;;;10.32;100.00;102764.72;5103984;28;20031;-68
2023/02/12 09:38:38;;;;;;;33.60;4.15;;;;;;;10.39;100.00;102789.22;5118165;28;20024;-68
2023/02/12 09:42:14;;;;;;;32.08;4.03;;;;;;;10.45;100.00;102785.91;5099255;28;20039;-68
2023/02/12 09:44:48;;;;;;;28.67;5.10;;;;;;;10.24;100.00;102779.91;4994439;28;20105;-67
2023/02/12 09:47:40;;;;;;;44.17;4.68;;;;;;;10.22;100.00;102774.66;4999809;28;20271;-68
2023/02/12 09:50:27;;;;;;;28.73;3.28;;;;;;;10.14;100.00;102789.88;5065711;28;20028;-68
2023/02/12 09:52:56;;;;;;;34.85;3.72;;;;;;;10.09;100.00;102777.69;5097148;28;20055;-68
2023/02/12 09:55:28;;;;;;;36.22;4.47;;;;;;;10.30;100.00;102784.75;5098731;28;20040;-69
2023/02/12 09:57:53;;;;;;;29.83;3.80;;;;;;;10.29;100.00;102777.66;5099023;28;20494;-69
2023/02/12 10:00:29;;;;;;;31.05;4.05;;;;;;;10.27;100.00;102782.34;5099566;28;20052;-69
2023/02/12 10:02:55;;;;;;;34.78;4.53;;;;;;;10.32;100.00;102780.88;5099041;28;20031;-68
2023/02/12 10:05:40;;;;;;;26.95;3.67;;;;;;;10.46;100.00;102790.31;5099961;28;20100;-68
2023/02/12 10:08:34;;;;;;;28.23;3.53;;;;;;;10.25;100.00;102782.44;5098062;28;20050;-68
2023/02/12 10:11:15;;;;;;;25.40;3.63;;;;;;;10.28;100.00;102787.56;5077708;28;20070;-68
2023/02/12 10:13:53;;;;;;;25.85;2.97;;;;;;;10.36;100.00;102778.75;5099402;28;20538;-68
2023/02/12 10:16:21;;;;;;;27.27;3.75;;;;;;;10.24;100.00;102783.44;5098865;28;20052;-68
2023/02/12 10:19:21;;;;;;;24.58;3.28;;;;;;;10.01;100.00;102782.97;5097925;28;20090;-69
2023/02/12 10:21:52;;;;;;;24.73;3.50;;;;;;;10.14;100.00;102785.34;5099124;28;20056;-68
2023/02/12 10:24:23;;;;;;;26.33;3.47;;;;;;;10.17;100.00;102787.72;5100226;28;20035;-69
2023/02/12 10:26:54;;;;;;;22.67;2.90;;;;;;;10.24;100.00;102783.44;5099149;28;20028;-69
2023/02/12 10:29:26;;;;;;;27.88;3.60;;;;;;;10.28;100.00;102786.72;5099767;28;20467;-69
2023/02/12 10:32:03;;;;;;;30.23;3.53;;;;;;;9.97;100.00;102761.91;5099465;28;20024;-68
2023/02/12 10:34:35;;;;;;;26.08;3.60;;;;;;;10.11;100.00;102782.94;5096350;28;20027;-67
2023/02/12 10:37:16;;;;;;;24.58;2.95;;;;;;;9.95;100.00;102769.25;5097527;28;20032;-69
2023/02/12 10:39:49;;;;;;;24.02;3.20;;;;;;;10.14;100.00;102779.97;5097306;28;20034;-66
2023/02/12 10:42:26;;;;;;;21.67;3.10;;;;;;;9.89;100.00;102784.97;5099114;28;20091;-68
2023/02/12 10:44:52;;;;;;;28.98;3.22;;;;;;;9.88;100.00;102769.84;5096616;28;20020;-68
2023/02/12 10:47:20;;;;;;;26.73;3.45;;;;;;;9.84;100.00;102757.69;5101804;28;20024;-67
2023/02/12 10:49:58;;;;;;;29.30;4.22;;;;;;;10.00;100.00;102783.97;5104619;28;20171;-68
2023/02/12 10:52:44;;;;;;;23.55;2.65;;;;;;;10.07;100.00;102785.06;5101733;28;20015;-67
2023/02/12 10:55:32;;;;;;;26.30;3.42;;;;;;;10.07;100.00;102786.94;5101125;28;20028;-68
2023/02/12 10:57:59;;;;;;;19.38;3.10;;;;;;;9.94;100.00;102794.47;5102191;28;20031;-68
2023/02/12 11:00:25;;;;;;;26.67;3.35;;;;;;;9.89;100.00;102794.88;5100411;28;20043;-68
2023/02/12 11:03:20;;;;;;;28.20;4.00;;;;;;;9.78;100.00;102795.91;5099010;28;20024;-70
2023/02/12 11:05:46;;;;;;;26.20;3.20;;;;;;;9.92;100.00;102807.19;5100506;28;20012;-65
2023/02/12 11:08:30;;;;;;;23.73;3.85;;;;;;;9.94;100.00;102805.22;5079929;28;20435;-66
2023/02/12 11:11:03;;;;;;;24.38;4.13;;;;;;;10.06;100.00;102790.59;5098138;28;20039;-66
2023/02/12 11:13:29;;;;;;;24.92;3.40;;;;;;;10.24;99.32;102793.38;5098571;28;20019;-67
2023/02/12 11:15:55;;;;;;;31.08;3.72;;;;;;;10.29;99.79;102801.88;5098727;28;20051;-66
2023/02/12 11:18:20;;;;;;;22.30;2.70;;;;;;;10.28;100.00;102795.63;5099055;28;20105;-66
2023/02/12 11:20:51;;;;;;;25.63;4.30;;;;;;;10.23;100.00;102797.91;5098978;28;20032;-66
2023/02/12 11:23:38;;;;;;;25.20;3.47;;;;;;;10.44;99.21;102791.47;5096143;28;20030;-66
2023/02/12 11:26:19;;;;;;;17.58;2.72;;;;;;;10.39;99.29;102799.13;5097408;28;20065;-67
2023/02/12 11:28:55;;;;;;;20.63;3.42;;;;;;;10.41;99.25;102794.47;5099059;28;20020;-66
2023/02/12 11:31:24;;;;;;;15.80;2.22;;;;;;;10.41;98.79;102789.91;5099081;28;20027;-67